createdAt,value
2022-10-02T00:01:43.765Z,20.64
2022-10-02T00:04:42.372Z,20.39
2022-10-02T00:07:13.719Z,20.47
2022-10-02T00:09:50.182Z,20.52
2022-10-02T00:12:24.426Z,20.65
2022-10-02T00:15:01.782Z,20.35
2022-10-02T00:17:38.928Z,20.82
2022-10-02T00:20:16.126Z,21.10
2022-10-02T00:22:54.264Z,21.20
2022-10-02T00:25:44.650Z,21.07
2022-10-02T00:28:33.295Z,21.18
2022-10-02T00:31:16.728Z,21.14
2022-10-02T00:34:10.803Z,21.00
2022-10-02T00:36:56.092Z,21.16
2022-10-02T00:39:53.890Z,21.38
2022-10-02T00:42:41.882Z,21.31
2022-10-02T00:45:26.561Z,21.32
2022-10-02T00:48:21.086Z,21.30
2022-10-02T00:51:16.136Z,21.25
2022-10-02T00:53:46.186Z,21.10
2022-10-02T00:56:29.240Z,20.76
2022-10-02T00:59:24.738Z,21.31
2022-10-02T01:02:20.938Z,21.57
2022-10-02T01:04:51.340Z,21.61
2022-10-02T01:07:21.849Z,21.68
2022-10-02T01:09:52.023Z,21.65
2022-10-02T01:12:23.268Z,21.70
2022-10-02T01:14:53.495Z,21.70
2022-10-02T01:17:28.621Z,22.03
2022-10-02T01:20:01.339Z,21.99
2022-10-02T01:22:40.449Z,21.87
2022-10-02T01:25:10.770Z,21.81
2022-10-02T01:27:41.514Z,21.86
2022-10-02T01:30:15.736Z,21.76
2022-10-02T01:32:58.046Z,22.18
2022-10-02T01:35:37.261Z,21.91
2022-10-02T01:38:17.791Z,21.80
2022-10-02T01:40:47.992Z,21.83
2022-10-02T01:43:25.822Z,21.99
2022-10-02T01:46:04.783Z,22.22
2022-10-02T01:48:43.814Z,22.18
2022-10-02T01:51:37.614Z,22.23
2022-10-02T01:54:18.125Z,22.19
2022-10-02T01:57:08.570Z,22.42
2022-10-02T01:59:48.351Z,23.05
2022-10-02T02:02:28.132Z,22.85
2022-10-02T02:05:19.918Z,23.04
2022-10-02T02:08:06.194Z,22.97
2022-10-02T02:10:39.106Z,23.23
2022-10-02T02:13:16.270Z,23.28
2022-10-02T02:16:02.076Z,22.98
2022-10-02T02:18:48.034Z,22.86
2022-10-02T02:21:25.362Z,23.03
2022-10-02T02:23:58.362Z,23.03
2022-10-02T02:26:30.454Z,23.04
2022-10-02T02:29:04.554Z,22.95
2022-10-02T02:32:01.116Z,22.97
2022-10-02T02:34:35.354Z,22.78
2022-10-02T02:37:14.946Z,23.24
2022-10-02T02:39:51.798Z,22.97
2022-10-02T02:42:26.368Z,22.91
2022-10-02T02:45:22.568Z,22.87
2022-10-02T02:47:54.953Z,22.69
2022-10-02T02:50:40.779Z,23.14
2022-10-02T02:53:35.278Z,23.15
2022-10-02T02:56:09.880Z,23.02
2022-10-02T02:58:53.394Z,22.93
2022-10-02T03:01:23.619Z,22.96
2022-10-02T03:03:54.143Z,23.26
2022-10-02T03:06:27.589Z,23.16
2022-10-02T03:08:57.974Z,22.93
2022-10-02T03:11:34.304Z,22.84
2022-10-02T03:14:16.211Z,22.72
2022-10-02T03:17:05.732Z,22.44
2022-10-02T03:19:52.217Z,22.19
2022-10-02T03:22:46.199Z,22.24
2022-10-02T03:25:30.937Z,22.00
2022-10-02T03:28:31.803Z,21.75
2022-10-02T03:31:09.506Z,21.93
2022-10-02T03:33:42.850Z,22.16
2022-10-02T03:36:15.483Z,21.92
2022-10-02T03:38:56.927Z,21.51
2022-10-02T03:41:39.799Z,21.58
2022-10-02T03:44:09.984Z,21.16
2022-10-02T03:46:40.745Z,21.10
2022-10-02T03:49:13.809Z,21.26
2022-10-02T03:51:44.240Z,20.54
2022-10-02T03:54:18.947Z,20.83
2022-10-02T03:56:58.545Z,21.26
2022-10-02T04:00:05.928Z,21.15
2022-10-02T04:02:48.882Z,21.08
2022-10-02T04:05:40.295Z,21.08
2022-10-02T04:08:36.127Z,21.50
2022-10-02T04:11:15.771Z,21.34
2022-10-02T04:14:17.722Z,21.27
2022-10-02T04:16:56.439Z,21.24
2022-10-02T04:20:01.531Z,21.29
2022-10-02T04:22:49.373Z,21.32
2022-10-02T04:25:25.081Z,21.09
2022-10-02T04:28:05.541Z,21.43
2022-10-02T04:30:36.169Z,21.32
2022-10-02T04:33:16.015Z,21.05
2022-10-02T04:35:55.635Z,20.86
2022-10-02T04:38:41.024Z,20.98
2022-10-02T04:41:26.426Z,21.10
2022-10-02T04:44:31.858Z,20.20
2022-10-02T04:47:23.222Z,20.71
2022-10-02T04:49:55.686Z,19.44
2022-10-02T04:52:29.342Z,19.92
2022-10-02T04:55:08.729Z,20.88
2022-10-02T04:57:58.043Z,20.79
2022-10-02T05:00:37.821Z,20.76
2022-10-02T05:03:39.819Z,20.50
2022-10-02T05:06:29.241Z,20.53
2022-10-02T05:09:30.194Z,20.27
2022-10-02T05:12:00.422Z,20.09
2022-10-02T05:14:49.119Z,20.34
2022-10-02T05:17:53.880Z,20.08
2022-10-02T05:20:27.326Z,20.28
2022-10-02T05:23:16.148Z,20.43
2022-10-02T05:25:55.075Z,20.61
2022-10-02T05:28:42.526Z,20.43
2022-10-02T05:31:31.867Z,20.57
2022-10-02T05:34:10.562Z,20.61
2022-10-02T05:37:11.647Z,20.57
2022-10-02T05:40:09.422Z,20.35
2022-10-02T05:43:26.178Z,20.50
2022-10-02T05:46:03.323Z,20.91
2022-10-02T05:48:54.315Z,20.78
2022-10-02T05:51:37.872Z,20.66
2022-10-02T05:54:23.568Z,20.66
2022-10-02T05:57:04.552Z,20.54
2022-10-02T06:00:13.250Z,20.31
2022-10-02T06:03:01.965Z,20.15
2022-10-02T06:05:57.482Z,20.19
2022-10-02T06:08:40.669Z,20.41
2022-10-02T06:11:23.795Z,20.54
2022-10-02T06:14:08.295Z,20.52
2022-10-02T06:17:06.356Z,20.49
2022-10-02T06:19:42.315Z,20.73
2022-10-02T06:22:20.555Z,20.93
2022-10-02T06:25:07.137Z,20.83
2022-10-02T06:28:02.865Z,20.91
2022-10-02T06:30:38.810Z,20.90
2022-10-02T06:33:19.923Z,20.86
2022-10-02T06:36:23.946Z,20.74
2022-10-02T06:39:17.469Z,20.94
2022-10-02T06:41:48.498Z,20.88
2022-10-02T06:44:30.966Z,20.80
2022-10-02T06:47:23.319Z,20.92
2022-10-02T06:50:23.852Z,20.58
2022-10-02T06:53:08.205Z,20.62
2022-10-02T06:55:47.791Z,20.64
2022-10-02T06:58:41.655Z,20.79
2022-10-02T07:01:33.571Z,20.67
2022-10-02T07:04:33.391Z,20.51
2022-10-02T07:07:09.562Z,20.79
2022-10-02T07:10:07.011Z,21.10
2022-10-02T07:12:49.245Z,21.10
2022-10-02T07:15:19.492Z,21.41
2022-10-02T07:18:10.542Z,21.47
2022-10-02T07:21:20.079Z,21.89
2022-10-02T07:24:02.237Z,21.63
2022-10-02T07:26:47.347Z,21.37
2022-10-02T07:29:35.789Z,21.45
2022-10-02T07:32:49.626Z,21.58
2022-10-02T07:35:38.379Z,21.33
2022-10-02T07:38:49.827Z,21.68
2022-10-02T07:41:53.882Z,21.32
2022-10-02T07:44:41.823Z,21.33
2022-10-02T07:47:32.601Z,21.09
2022-10-02T07:50:13.412Z,20.95
2022-10-02T07:52:51.459Z,21.00
2022-10-02T07:55:23.934Z,21.49
2022-10-02T07:58:02.287Z,21.54
2022-10-02T08:00:37.613Z,21.38
2022-10-02T08:03:28.724Z,21.25
2022-10-02T08:06:01.658Z,21.36
2022-10-02T08:09:24.362Z,21.03
2022-10-02T08:12:04.039Z,21.01
2022-10-02T08:14:42.737Z,21.69
2022-10-02T08:17:33.067Z,21.41
2022-10-02T08:20:49.591Z,21.02
2022-10-02T08:23:40.366Z,20.92
2022-10-02T08:26:13.870Z,20.95
2022-10-02T08:29:21.698Z,21.06
2022-10-02T08:31:55.081Z,21.11
2022-10-02T08:34:27.226Z,21.55
2022-10-02T08:37:15.876Z,21.19
2022-10-02T08:39:48.802Z,21.03
2022-10-02T08:42:24.607Z,20.90
2022-10-02T08:45:27.304Z,20.67
2022-10-02T08:48:31.694Z,20.33
2022-10-02T08:51:13.301Z,20.37
2022-10-02T08:54:21.020Z,20.22
2022-10-02T08:56:51.104Z,20.25
2022-10-02T08:59:48.597Z,20.78
2022-10-02T09:02:52.258Z,20.43
2022-10-02T09:05:57.154Z,20.59
2022-10-02T09:08:30.423Z,20.47
2022-10-02T09:11:20.498Z,20.67
2022-10-02T09:14:11.383Z,20.74
2022-10-02T09:17:07.812Z,20.58
2022-10-02T09:19:57.723Z,20.71
2022-10-02T09:22:45.596Z,21.04
2022-10-02T09:25:45.995Z,21.51
2022-10-02T09:28:51.998Z,21.46
2022-10-02T09:31:34.355Z,21.37
2022-10-02T09:34:23.218Z,21.49
2022-10-02T09:37:17.331Z,21.35
2022-10-02T09:40:05.842Z,21.15
2022-10-02T09:42:53.202Z,21.91
2022-10-02T09:45:41.888Z,22.18
2022-10-02T09:48:31.454Z,22.01
2022-10-02T09:51:18.107Z,22.22
2022-10-02T09:54:24.888Z,21.98
2022-10-02T09:57:32.898Z,22.28
2022-10-02T10:00:29.890Z,22.20
2022-10-02T10:03:20.158Z,22.16
2022-10-02T10:06:27.164Z,22.00
2022-10-02T10:08:57.622Z,22.11
2022-10-02T10:12:04.423Z,22.83
2022-10-02T10:15:09.181Z,22.53
2022-10-02T10:17:56.898Z,22.71
2022-10-02T10:20:46.056Z,22.82
2022-10-02T10:23:28.266Z,23.24
2022-10-02T10:26:16.275Z,23.24
2022-10-02T10:28:58.240Z,23.28
2022-10-02T10:32:06.422Z,23.26
2022-10-02T10:34:47.244Z,23.61
2022-10-02T10:37:53.955Z,23.53
2022-10-02T10:40:51.825Z,23.63
2022-10-02T10:43:43.830Z,24.06
2022-10-02T10:46:42.516Z,24.54
2022-10-02T10:49:43.082Z,24.13
2022-10-02T10:52:34.556Z,24.06
2022-10-02T10:55:13.565Z,24.39
2022-10-02T10:58:02.114Z,24.19
2022-10-02T11:01:08.111Z,24.07
2022-10-02T11:04:19.310Z,24.81
2022-10-02T11:07:14.947Z,24.49
2022-10-02T11:10:06.351Z,24.39
2022-10-02T11:13:04.217Z,24.33
2022-10-02T11:15:40.415Z,24.46
2022-10-02T11:19:01.240Z,24.23
2022-10-02T11:22:08.414Z,24.09
2022-10-02T11:25:03.087Z,24.35
2022-10-02T11:27:54.259Z,24.53
2022-10-02T11:30:34.163Z,24.67
2022-10-02T11:33:31.240Z,25.60
2022-10-02T11:36:20.242Z,25.52
2022-10-02T11:39:09.271Z,25.05
2022-10-02T11:42:16.631Z,25.98
2022-10-02T11:45:35.559Z,25.72
2022-10-02T11:48:19.869Z,25.29
2022-10-02T11:51:03.141Z,25.64
2022-10-02T11:54:17.595Z,25.41
2022-10-02T11:57:11.950Z,25.47
2022-10-02T12:00:05.402Z,25.81
2022-10-02T12:03:13.192Z,25.82
2022-10-02T12:06:16.378Z,25.61
2022-10-02T12:09:24.178Z,25.68
2022-10-02T12:12:27.562Z,25.63
2022-10-02T12:15:15.473Z,25.31
2022-10-02T12:17:54.515Z,24.91
2022-10-02T12:20:56.585Z,24.82
2022-10-02T12:24:14.268Z,25.25
2022-10-02T12:27:23.304Z,25.34
2022-10-02T12:30:14.734Z,25.61
2022-10-02T12:33:03.922Z,25.39
2022-10-02T12:36:12.367Z,25.58
2022-10-02T12:39:01.058Z,25.58
2022-10-02T12:41:46.560Z,25.99
2022-10-02T12:44:33.264Z,26.62
2022-10-02T12:47:24.795Z,26.57
2022-10-02T12:50:39.894Z,27.95
2022-10-02T12:53:31.058Z,27.82
2022-10-02T12:56:27.492Z,28.32
2022-10-02T12:59:00.383Z,28.63
2022-10-02T13:01:51.185Z,28.51
2022-10-02T13:04:40.244Z,28.38
2022-10-02T13:07:31.341Z,28.87
2022-10-02T13:10:23.689Z,28.37
2022-10-02T13:13:06.116Z,28.93
2022-10-02T13:16:23.362Z,27.94
2022-10-02T13:19:14.717Z,27.31
2022-10-02T13:22:11.195Z,27.53
2022-10-02T13:25:02.789Z,27.62
2022-10-02T13:27:54.613Z,27.34
2022-10-02T13:30:25.483Z,28.61
2022-10-02T13:33:17.189Z,28.20
2022-10-02T13:36:05.407Z,28.18
2022-10-02T13:39:10.475Z,28.93
2022-10-02T13:42:09.004Z,29.70
2022-10-02T13:45:18.102Z,29.98
2022-10-02T13:47:57.516Z,30.38
2022-10-02T13:50:28.971Z,30.97
2022-10-02T13:53:01.946Z,32.35
2022-10-02T13:55:50.110Z,31.64
2022-10-02T13:58:44.032Z,29.81
2022-10-02T14:01:32.653Z,29.84
2022-10-02T14:04:24.644Z,31.14
2022-10-02T14:07:03.390Z,30.87
2022-10-02T14:10:01.283Z,32.64
2022-10-02T14:13:04.807Z,34.25
2022-10-02T14:16:03.887Z,33.06
2022-10-02T14:19:00.495Z,32.75
2022-10-02T14:21:52.637Z,31.62
2022-10-02T14:24:58.411Z,31.03
2022-10-02T14:27:53.606Z,30.42
2022-10-02T14:30:25.630Z,31.14
2022-10-02T14:33:10.746Z,30.87
2022-10-02T14:36:08.282Z,29.93
2022-10-02T14:39:05.366Z,30.76
2022-10-02T14:41:49.197Z,30.65
2022-10-02T14:44:34.535Z,30.06
2022-10-02T14:47:38.815Z,30.23
2022-10-02T14:50:20.821Z,30.30
2022-10-02T14:53:27.441Z,30.60
2022-10-02T14:56:10.346Z,30.63
2022-10-02T14:59:02.356Z,31.18
2022-10-02T15:01:39.504Z,30.35
2022-10-02T15:04:24.281Z,30.11
2022-10-02T15:07:09.311Z,29.40
2022-10-02T15:10:02.972Z,28.65
2022-10-02T15:12:45.602Z,28.58
2022-10-02T15:15:18.138Z,28.79
2022-10-02T15:18:01.466Z,29.20
2022-10-02T15:20:50.084Z,29.27
2022-10-02T15:23:45.524Z,29.56
2022-10-02T15:26:28.547Z,29.38
2022-10-02T15:29:22.469Z,29.62
2022-10-02T15:32:39.789Z,30.18
2022-10-02T15:35:26.119Z,30.23
2022-10-02T15:38:26.866Z,30.91
2022-10-02T15:41:17.965Z,31.03
2022-10-02T15:44:06.257Z,30.13
2022-10-02T15:46:55.651Z,30.12
2022-10-02T15:49:42.295Z,29.86
2022-10-02T15:52:27.327Z,29.49
2022-10-02T15:55:02.089Z,30.24
2022-10-02T15:58:01.889Z,30.60
2022-10-02T16:00:59.135Z,30.21
2022-10-02T16:03:37.842Z,29.86
2022-10-02T16:06:40.327Z,30.31
2022-10-02T16:09:44.838Z,29.57
2022-10-02T16:12:34.602Z,28.84
2022-10-02T16:15:14.026Z,29.38
2022-10-02T16:17:59.062Z,29.52
2022-10-02T16:20:47.769Z,28.75
2022-10-02T16:23:52.711Z,28.82
2022-10-02T16:26:41.227Z,28.89
2022-10-02T16:29:25.523Z,28.83
2022-10-02T16:32:15.088Z,29.52
2022-10-02T16:35:26.254Z,30.02
2022-10-02T16:38:01.335Z,29.89
2022-10-02T16:40:54.177Z,30.37
2022-10-02T16:43:52.563Z,30.13
2022-10-02T16:46:41.256Z,30.44
2022-10-02T16:49:29.494Z,30.24
2022-10-02T16:52:06.324Z,29.25
2022-10-02T16:54:47.877Z,29.05
2022-10-02T16:57:31.443Z,28.90
2022-10-02T17:00:17.110Z,28.94
2022-10-02T17:03:05.629Z,29.55
2022-10-02T17:05:49.405Z,29.05
2022-10-02T17:08:48.140Z,28.57
2022-10-02T17:11:58.678Z,28.82
2022-10-02T17:15:02.051Z,28.16
2022-10-02T17:17:44.784Z,27.98
2022-10-02T17:20:18.487Z,28.18
2022-10-02T17:23:07.461Z,28.22
2022-10-02T17:25:52.122Z,28.05
2022-10-02T17:28:43.758Z,28.64
2022-10-02T17:31:19.784Z,28.20
2022-10-02T17:34:13.958Z,27.29
2022-10-02T17:36:50.935Z,28.16
2022-10-02T17:39:39.172Z,27.86
2022-10-02T17:42:33.926Z,28.14
2022-10-02T17:45:45.828Z,28.95
2022-10-02T17:48:23.170Z,29.10
2022-10-02T17:51:39.029Z,28.90
2022-10-02T17:54:46.247Z,29.25
2022-10-02T17:57:44.907Z,29.98
2022-10-02T18:00:25.074Z,30.01
2022-10-02T18:03:37.939Z,30.51
2022-10-02T18:06:54.038Z,29.99
2022-10-02T18:09:43.064Z,30.73
2022-10-02T18:12:28.023Z,31.75
2022-10-02T18:15:38.247Z,32.35
2022-10-02T18:18:36.181Z,32.32
2022-10-02T18:21:22.418Z,32.73
2022-10-02T18:24:33.038Z,32.34
2022-10-02T18:27:10.135Z,32.09
2022-10-02T18:29:52.449Z,33.26
2022-10-02T18:32:52.915Z,33.57
2022-10-02T18:35:43.915Z,33.86
2022-10-02T18:38:23.208Z,34.28
2022-10-02T18:41:29.491Z,34.71
2022-10-02T18:44:27.366Z,35.12
2022-10-02T18:47:05.612Z,35.70
2022-10-02T18:49:43.446Z,35.40
2022-10-02T18:52:36.982Z,34.95
2022-10-02T18:55:29.183Z,35.82
2022-10-02T18:58:07.259Z,35.86
2022-10-02T19:00:49.247Z,35.32
2022-10-02T19:03:51.003Z,35.49
2022-10-02T19:06:28.239Z,34.61
2022-10-02T19:09:10.200Z,33.80
2022-10-02T19:11:59.905Z,33.71
2022-10-02T19:14:47.012Z,33.35
2022-10-02T19:17:25.194Z,33.77
2022-10-02T19:19:56.916Z,34.71
2022-10-02T19:22:39.484Z,34.66
2022-10-02T19:25:21.544Z,34.49
2022-10-02T19:27:58.360Z,34.16
2022-10-02T19:30:31.765Z,33.96
2022-10-02T19:33:09.978Z,34.22
2022-10-02T19:35:46.207Z,33.72
2022-10-02T19:38:29.689Z,33.78
2022-10-02T19:41:01.905Z,33.17
2022-10-02T19:43:35.570Z,32.82
2022-10-02T19:46:09.541Z,32.98
2022-10-02T19:48:41.922Z,32.42
2022-10-02T19:51:22.686Z,31.65
2022-10-02T19:54:02.447Z,31.71
2022-10-02T19:56:42.295Z,31.92
2022-10-02T19:59:22.516Z,31.94
2022-10-02T20:01:55.797Z,31.75
2022-10-02T20:04:30.054Z,31.56
2022-10-02T20:07:01.682Z,31.43
2022-10-02T20:09:57.394Z,30.82
2022-10-02T20:12:34.839Z,30.06
2022-10-02T20:15:49.285Z,29.51
2022-10-02T20:18:22.562Z,28.63
2022-10-02T20:20:57.118Z,28.16
2022-10-02T20:23:31.157Z,28.61
2022-10-02T20:26:09.989Z,28.20
2022-10-02T20:28:58.562Z,27.69
2022-10-02T20:31:48.260Z,27.98
2022-10-02T20:34:48.182Z,27.59
2022-10-02T20:37:26.281Z,27.42
2022-10-02T20:40:09.805Z,27.84
2022-10-02T20:42:45.927Z,27.37
2022-10-02T20:45:17.461Z,26.97
2022-10-02T20:47:59.482Z,27.39
2022-10-02T20:50:56.221Z,26.87
2022-10-02T20:53:45.554Z,26.60
2022-10-02T20:56:39.785Z,26.82
2022-10-02T20:59:35.378Z,26.30
2022-10-02T21:02:23.648Z,26.16
2022-10-02T21:05:22.157Z,26.33
2022-10-02T21:08:05.283Z,25.72
2022-10-02T21:10:41.790Z,25.59
2022-10-02T21:13:48.915Z,25.57
2022-10-02T21:16:50.960Z,25.04
2022-10-02T21:19:39.249Z,25.06
2022-10-02T21:22:28.319Z,25.20
2022-10-02T21:25:19.350Z,24.64
2022-10-02T21:28:08.431Z,24.69
2022-10-02T21:31:01.137Z,24.96
2022-10-02T21:33:41.391Z,24.54
2022-10-02T21:36:22.784Z,24.42
2022-10-02T21:39:35.086Z,24.58
2022-10-02T21:42:32.886Z,24.05
2022-10-02T21:45:25.139Z,23.97
2022-10-02T21:48:49.269Z,24.37
2022-10-02T21:51:41.690Z,24.62
2022-10-02T21:54:45.614Z,24.24
2022-10-02T21:57:34.259Z,24.28
2022-10-02T22:00:08.853Z,24.33
2022-10-02T22:02:40.162Z,23.93
2022-10-02T22:05:19.082Z,24.15
2022-10-02T22:08:27.851Z,24.89
2022-10-02T22:11:27.550Z,24.03
2022-10-02T22:14:08.056Z,23.67
2022-10-02T22:16:49.873Z,23.38
2022-10-02T22:19:45.047Z,23.33
2022-10-02T22:22:37.881Z,23.17
2022-10-02T22:25:52.397Z,22.75
2022-10-02T22:28:45.377Z,22.35
2022-10-02T22:31:42.923Z,22.18
2022-10-02T22:34:21.710Z,22.27
2022-10-02T22:37:09.934Z,22.08
2022-10-02T22:39:47.626Z,22.49
2022-10-02T22:42:47.944Z,22.42
2022-10-02T22:45:24.806Z,22.30
2022-10-02T22:48:10.242Z,22.34
2022-10-02T22:50:55.086Z,22.39
2022-10-02T22:53:45.900Z,22.27
2022-10-02T22:56:44.671Z,21.95
2022-10-02T22:59:39.230Z,21.70
2022-10-02T23:02:27.458Z,21.66
2022-10-02T23:05:02.153Z,21.84
2022-10-02T23:07:50.808Z,21.92
2022-10-02T23:10:47.884Z,21.62
2022-10-02T23:13:23.007Z,21.66
2022-10-02T23:16:02.393Z,21.63
2022-10-02T23:18:44.540Z,21.58
2022-10-02T23:21:15.089Z,21.28
2022-10-02T23:23:45.855Z,21.32
2022-10-02T23:26:41.207Z,21.27
2022-10-02T23:29:29.694Z,21.10
2022-10-02T23:32:22.936Z,20.89
2022-10-02T23:35:14.278Z,20.92
2022-10-02T23:37:54.019Z,20.65
2022-10-02T23:40:50.992Z,20.55
2022-10-02T23:44:02.822Z,20.46
2022-10-02T23:46:36.936Z,20.06
2022-10-02T23:49:10.441Z,20.39
2022-10-02T23:52:01.646Z,20.33
2022-10-02T23:54:46.817Z,20.18
2022-10-02T23:57:19.598Z,20.12
